LGKR/CFU METAR and TAF weather

Enter ICAO airport designator
Station Type Date Time Source
LGKR METAR 2019/06/26 19:50 UTC NOAA

LGKR 261950Z 23003KT CAVOK 27/20 Q1015 NOSIG


Station Type Date Time Source
LGKR Decoded METAR 2019/06/26 19:50 UTC NOAA

Kerkyra Airport , Greece (LGKR) 39-37N 019-55E 4M
Jun 26, 2019 - 03:50 PM EDT / 2019.06.26 1950 UTC
Wind: from the SW (230 degrees) at 3 MPH (3 KT):0
Visibility: greater than 7 mile(s):0
Temperature: 80 F (27 C)
Dew Point: 68 F (20 C)
Relative Humidity: 65%
Pressure (altimeter): 29.97 in. Hg (1015 hPa)
ob: LGKR 261950Z 23003KT CAVOK 27/20 Q1015 NOSIG
cycle: 20

Station Type Date Time Source
LGKR TAF 2019/06/26 18:12 UTC NOAA

TAF LGKR 261700Z 2618/2718 VRB05KT 9999 FEW018 SCT070
BECMG 2711/2713 32010KT

Example: see airport list